sensor_id;sensor_type;location;lat;lon;timestamp;temperature;humidity
3416;DHT22;1721;51.238;9.562;2023-08-01T00:01:49;17.50;99.90
3416;DHT22;1721;51.238;9.562;2023-08-01T00:04:14;17.50;99.90
3416;DHT22;1721;51.238;9.562;2023-08-01T00:06:41;17.40;99.90
3416;DHT22;1721;51.238;9.562;2023-08-01T00:09:07;17.40;99.90
3416;DHT22;1721;51.238;9.562;2023-08-01T00:11:32;17.50;99.90
3416;DHT22;1721;51.238;9.562;2023-08-01T00:13:58;17.50;99.90
3416;DHT22;1721;51.238;9.562;2023-08-01T00:16:24;17.40;99.90
3416;DHT22;1721;51.238;9.562;2023-08-01T00:18:49;17.50;99.90
3416;DHT22;1721;51.238;9.562;2023-08-01T00:21:15;17.50;99.90
3416;DHT22;1721;51.238;9.562;2023-08-01T00:23:40;17.60;99.90
3416;DHT22;1721;51.238;9.562;2023-08-01T00:26:06;17.50;99.90
3416;DHT22;1721;51.238;9.562;2023-08-01T00:28:32;17.50;99.90
3416;DHT22;1721;51.238;9.562;2023-08-01T00:31:08;17.60;99.90
3416;DHT22;1721;51.238;9.562;2023-08-01T00:33:36;17.60;99.90
3416;DHT22;1721;51.238;9.562;2023-08-01T00:36:02;17.50;99.90
3416;DHT22;1721;51.238;9.562;2023-08-01T00:38:28;17.50;99.90
3416;DHT22;1721;51.238;9.562;2023-08-01T00:40:53;17.40;99.90
3416;DHT22;1721;51.238;9.562;2023-08-01T00:43:19;17.50;99.90
3416;DHT22;1721;51.238;9.562;2023-08-01T00:45:45;17.60;99.90
3416;DHT22;1721;51.238;9.562;2023-08-01T00:48:11;17.40;99.90
3416;DHT22;1721;51.238;9.562;2023-08-01T00:50:38;17.40;99.90
3416;DHT22;1721;51.238;9.562;2023-08-01T00:53:04;17.50;99.90
3416;DHT22;1721;51.238;9.562;2023-08-01T00:55:32;17.50;99.90
3416;DHT22;1721;51.238;9.562;2023-08-01T00:57:59;17.40;99.90
3416;DHT22;1721;51.238;9.562;2023-08-01T01:00:25;17.60;99.90
3416;DHT22;1721;51.238;9.562;2023-08-01T01:02:50;17.40;99.90
3416;DHT22;1721;51.238;9.562;2023-08-01T01:05:16;17.50;99.90
3416;DHT22;1721;51.238;9.562;2023-08-01T01:07:41;17.60;99.90
3416;DHT22;1721;51.238;9.562;2023-08-01T01:10:08;17.40;99.90
3416;DHT22;1721;51.238;9.562;2023-08-01T01:12:33;17.50;99.90
3416;DHT22;1721;51.238;9.562;2023-08-01T01:14:59;17.60;99.90
3416;DHT22;1721;51.238;9.562;2023-08-01T01:17:24;17.60;99.90
3416;DHT22;1721;51.238;9.562;2023-08-01T01:19:50;17.50;99.90
3416;DHT22;1721;51.238;9.562;2023-08-01T01:22:16;17.70;99.90
3416;DHT22;1721;51.238;9.562;2023-08-01T01:24:42;17.80;99.90
3416;DHT22;1721;51.238;9.562;2023-08-01T01:27:08;17.80;99.90
3416;DHT22;1721;51.238;9.562;2023-08-01T01:29:35;17.80;99.90
3416;DHT22;1721;51.238;9.562;2023-08-01T01:32:01;17.80;99.90
3416;DHT22;1721;51.238;9.562;2023-08-01T01:34:28;17.70;99.90
3416;DHT22;1721;51.238;9.562;2023-08-01T01:36:54;17.70;99.90
3416;DHT22;1721;51.238;9.562;2023-08-01T01:39:19;17.80;99.90
3416;DHT22;1721;51.238;9.562;2023-08-01T01:41:45;17.80;99.90
3416;DHT22;1721;51.238;9.562;2023-08-01T01:44:11;17.90;99.90
3416;DHT22;1721;51.238;9.562;2023-08-01T01:46:37;18.00;99.90
3416;DHT22;1721;51.238;9.562;2023-08-01T01:49:02;17.90;99.90
3416;DHT22;1721;51.238;9.562;2023-08-01T01:51:28;17.90;99.90
3416;DHT22;1721;51.238;9.562;2023-08-01T01:53:54;17.80;99.90
3416;DHT22;1721;51.238;9.562;2023-08-01T01:56:20;17.80;99.90
3416;DHT22;1721;51.238;9.562;2023-08-01T01:58:45;17.80;99.90
3416;DHT22;1721;51.238;9.562;2023-08-01T02:01:11;17.90;99.90
3416;DHT22;1721;51.238;9.562;2023-08-01T02:03:36;18.00;99.90
3416;DHT22;1721;51.238;9.562;2023-08-01T02:06:02;17.90;99.90
3416;DHT22;1721;51.238;9.562;2023-08-01T02:08:31;18.10;99.90
3416;DHT22;1721;51.238;9.562;2023-08-01T02:10:57;18.10;99.90
3416;DHT22;1721;51.238;9.562;2023-08-01T02:13:28;18.00;99.90
3416;DHT22;1721;51.238;9.562;2023-08-01T02:15:54;17.90;99.90
3416;DHT22;1721;51.238;9.562;2023-08-01T02:18:20;18.00;99.90
3416;DHT22;1721;51.238;9.562;2023-08-01T02:20:45;17.90;99.90
3416;DHT22;1721;51.238;9.562;2023-08-01T02:23:11;18.00;99.90
3416;DHT22;1721;51.238;9.562;2023-08-01T02:25:40;18.00;99.90
3416;DHT22;1721;51.238;9.562;2023-08-01T02:28:06;17.90;99.90
3416;DHT22;1721;51.238;9.562;2023-08-01T02:30:32;17.90;99.90
3416;DHT22;1721;51.238;9.562;2023-08-01T02:32:58;17.80;99.90
3416;DHT22;1721;51.238;9.562;2023-08-01T02:35:23;17.70;99.90
3416;DHT22;1721;51.238;9.562;2023-08-01T02:37:49;17.50;99.90
3416;DHT22;1721;51.238;9.562;2023-08-01T02:40:14;17.40;99.90
3416;DHT22;1721;51.238;9.562;2023-08-01T02:42:40;17.30;99.90
3416;DHT22;1721;51.238;9.562;2023-08-01T02:45:06;17.20;99.90
3416;DHT22;1721;51.238;9.562;2023-08-01T02:47:31;17.30;99.90
3416;DHT22;1721;51.238;9.562;2023-08-01T02:49:57;17.30;99.90
3416;DHT22;1721;51.238;9.562;2023-08-01T02:52:22;17.20;99.90
3416;DHT22;1721;51.238;9.562;2023-08-01T02:54:48;17.10;99.90
3416;DHT22;1721;51.238;9.562;2023-08-01T02:57:13;17.20;99.90
3416;DHT22;1721;51.238;9.562;2023-08-01T02:59:39;17.20;99.90
3416;DHT22;1721;51.238;9.562;2023-08-01T03:02:04;17.20;99.90
3416;DHT22;1721;51.238;9.562;2023-08-01T03:04:30;17.20;99.90
3416;DHT22;1721;51.238;9.562;2023-08-01T03:06:55;17.10;99.90
3416;DHT22;1721;51.238;9.562;2023-08-01T03:09:21;17.10;99.90
3416;DHT22;1721;51.238;9.562;2023-08-01T03:11:46;17.10;99.90
3416;DHT22;1721;51.238;9.562;2023-08-01T03:14:12;17.00;99.90
3416;DHT22;1721;51.238;9.562;2023-08-01T03:16:37;16.90;99.90
3416;DHT22;1721;51.238;9.562;2023-08-01T03:19:03;16.90;99.90
3416;DHT22;1721;51.238;9.562;2023-08-01T03:21:33;17.00;99.90
3416;DHT22;1721;51.238;9.562;2023-08-01T03:23:59;17.00;99.90
3416;DHT22;1721;51.238;9.562;2023-08-01T03:26:25;17.00;99.90
3416;DHT22;1721;51.238;9.562;2023-08-01T03:28:53;16.90;99.90
3416;DHT22;1721;51.238;9.562;2023-08-01T03:31:19;17.00;99.90
3416;DHT22;1721;51.238;9.562;2023-08-01T03:33:45;17.10;99.90
3416;DHT22;1721;51.238;9.562;2023-08-01T03:36:10;17.10;99.90
3416;DHT22;1721;51.238;9.562;2023-08-01T03:38:36;17.20;99.90
3416;DHT22;1721;51.238;9.562;2023-08-01T03:41:02;17.30;99.90
3416;DHT22;1721;51.238;9.562;2023-08-01T03:43:29;17.10;99.90
3416;DHT22;1721;51.238;9.562;2023-08-01T03:45:55;17.20;99.90
3416;DHT22;1721;51.238;9.562;2023-08-01T03:48:20;17.20;99.90
3416;DHT22;1721;51.238;9.562;2023-08-01T03:50:46;17.30;99.90
3416;DHT22;1721;51.238;9.562;2023-08-01T03:53:11;17.50;99.90
3416;DHT22;1721;51.238;9.562;2023-08-01T03:55:37;17.30;99.90
3416;DHT22;1721;51.238;9.562;2023-08-01T03:58:02;17.30;99.90
3416;DHT22;1721;51.238;9.562;2023-08-01T04:00:28;17.30;99.90
3416;DHT22;1721;51.238;9.562;2023-08-01T04:02:58;17.30;99.90
3416;DHT22;1721;51.238;9.562;2023-08-01T04:05:23;17.30;99.90
3416;DHT22;1721;51.238;9.562;2023-08-01T04:07:49;17.20;99.90
3416;DHT22;1721;51.238;9.562;2023-08-01T04:10:15;17.40;99.90
3416;DHT22;1721;51.238;9.562;2023-08-01T04:12:40;17.40;99.90
3416;DHT22;1721;51.238;9.562;2023-08-01T04:15:08;17.30;99.90
3416;DHT22;1721;51.238;9.562;2023-08-01T04:17:33;17.20;99.90
3416;DHT22;1721;51.238;9.562;2023-08-01T04:19:59;17.20;99.90
3416;DHT22;1721;51.238;9.562;2023-08-01T04:22:25;17.30;99.90
3416;DHT22;1721;51.238;9.562;2023-08-01T04:24:50;17.40;99.90
3416;DHT22;1721;51.238;9.562;2023-08-01T04:27:16;17.50;99.90
3416;DHT22;1721;51.238;9.562;2023-08-01T04:29:41;17.50;99.90
3416;DHT22;1721;51.238;9.562;2023-08-01T04:32:07;17.50;99.90
3416;DHT22;1721;51.238;9.562;2023-08-01T04:34:33;17.50;99.90
3416;DHT22;1721;51.238;9.562;2023-08-01T04:36:59;17.60;99.90
3416;DHT22;1721;51.238;9.562;2023-08-01T04:39:24;17.60;99.90
3416;DHT22;1721;51.238;9.562;2023-08-01T04:41:50;17.60;99.90
3416;DHT22;1721;51.238;9.562;2023-08-01T04:44:15;17.60;99.90
3416;DHT22;1721;51.238;9.562;2023-08-01T04:46:41;17.50;99.90
3416;DHT22;1721;51.238;9.562;2023-08-01T04:49:07;17.70;99.90
3416;DHT22;1721;51.238;9.562;2023-08-01T04:51:33;17.80;99.90
3416;DHT22;1721;51.238;9.562;2023-08-01T04:53:58;17.70;99.90
3416;DHT22;1721;51.238;9.562;2023-08-01T04:56:24;17.70;99.90
3416;DHT22;1721;51.238;9.562;2023-08-01T04:58:49;17.70;99.90
3416;DHT22;1721;51.238;9.562;2023-08-01T05:01:15;17.70;99.90
3416;DHT22;1721;51.238;9.562;2023-08-01T05:03:41;17.70;99.90
3416;DHT22;1721;51.238;9.562;2023-08-01T05:06:06;17.70;99.90
3416;DHT22;1721;51.238;9.562;2023-08-01T05:08:32;17.70;99.90
3416;DHT22;1721;51.238;9.562;2023-08-01T05:10:58;17.70;99.90
3416;DHT22;1721;51.238;9.562;2023-08-01T05:13:23;17.80;99.90
3416;DHT22;1721;51.238;9.562;2023-08-01T05:15:49;17.80;99.90
3416;DHT22;1721;51.238;9.562;2023-08-01T05:18:16;17.80;99.90
3416;DHT22;1721;51.238;9.562;2023-08-01T05:20:42;18.00;99.90
3416;DHT22;1721;51.238;9.562;2023-08-01T05:23:07;18.00;99.90
3416;DHT22;1721;51.238;9.562;2023-08-01T05:25:33;17.90;99.90
3416;DHT22;1721;51.238;9.562;2023-08-01T05:27:59;18.00;99.90
3416;DHT22;1721;51.238;9.562;2023-08-01T05:30:25;18.10;99.90
3416;DHT22;1721;51.238;9.562;2023-08-01T05:32:50;18.10;99.90
3416;DHT22;1721;51.238;9.562;2023-08-01T05:35:17;18.10;99.90
3416;DHT22;1721;51.238;9.562;2023-08-01T05:37:42;18.10;99.90
3416;DHT22;1721;51.238;9.562;2023-08-01T05:40:08;18.20;99.90
3416;DHT22;1721;51.238;9.562;2023-08-01T05:42:34;18.30;99.90
3416;DHT22;1721;51.238;9.562;2023-08-01T05:45:00;18.30;99.90
3416;DHT22;1721;51.238;9.562;2023-08-01T05:47:25;18.40;99.90
3416;DHT22;1721;51.238;9.562;2023-08-01T05:49:51;18.50;99.90
3416;DHT22;1721;51.238;9.562;2023-08-01T05:52:16;18.50;99.90
3416;DHT22;1721;51.238;9.562;2023-08-01T05:54:42;18.50;99.90
3416;DHT22;1721;51.238;9.562;2023-08-01T05:57:08;18.70;99.90
3416;DHT22;1721;51.238;9.562;2023-08-01T05:59:34;18.80;99.90
3416;DHT22;1721;51.238;9.562;2023-08-01T06:01:59;18.90;99.90
3416;DHT22;1721;51.238;9.562;2023-08-01T06:04:25;18.90;99.90
3416;DHT22;1721;51.238;9.562;2023-08-01T06:06:50;18.90;99.90
3416;DHT22;1721;51.238;9.562;2023-08-01T06:09:16;19.00;99.90
3416;DHT22;1721;51.238;9.562;2023-08-01T06:11:41;19.00;99.90
3416;DHT22;1721;51.238;9.562;2023-08-01T06:14:07;18.80;99.90
3416;DHT22;1721;51.238;9.562;2023-08-01T06:16:33;18.60;99.90
3416;DHT22;1721;51.238;9.562;2023-08-01T06:18:58;18.30;99.90
3416;DHT22;1721;51.238;9.562;2023-08-01T06:21:24;18.20;99.90
3416;DHT22;1721;51.238;9.562;2023-08-01T06:23:49;18.10;99.90
3416;DHT22;1721;51.238;9.562;2023-08-01T06:26:15;17.90;99.90
3416;DHT22;1721;51.238;9.562;2023-08-01T06:28:41;17.80;99.90
3416;DHT22;1721;51.238;9.562;2023-08-01T06:31:07;17.70;99.90
3416;DHT22;1721;51.238;9.562;2023-08-01T06:33:32;17.80;99.90
3416;DHT22;1721;51.238;9.562;2023-08-01T06:35:58;17.90;99.90
3416;DHT22;1721;51.238;9.562;2023-08-01T06:38:23;17.90;99.90
3416;DHT22;1721;51.238;9.562;2023-08-01T06:40:49;17.90;99.90
3416;DHT22;1721;51.238;9.562;2023-08-01T06:43:14;17.90;99.90
3416;DHT22;1721;51.238;9.562;2023-08-01T06:45:40;17.90;99.90
3416;DHT22;1721;51.238;9.562;2023-08-01T06:48:05;18.00;99.90
3416;DHT22;1721;51.238;9.562;2023-08-01T06:50:31;18.00;99.90
3416;DHT22;1721;51.238;9.562;2023-08-01T06:52:56;17.90;99.90
3416;DHT22;1721;51.238;9.562;2023-08-01T06:55:22;17.80;99.90
3416;DHT22;1721;51.238;9.562;2023-08-01T06:57:48;17.90;99.90
3416;DHT22;1721;51.238;9.562;2023-08-01T07:00:13;17.90;99.90
3416;DHT22;1721;51.238;9.562;2023-08-01T07:02:39;17.90;99.90
3416;DHT22;1721;51.238;9.562;2023-08-01T07:05:05;17.90;99.90
3416;DHT22;1721;51.238;9.562;2023-08-01T07:07:30;18.00;99.90
3416;DHT22;1721;51.238;9.562;2023-08-01T07:09:56;18.00;99.90
3416;DHT22;1721;51.238;9.562;2023-08-01T07:12:21;18.20;99.90
3416;DHT22;1721;51.238;9.562;2023-08-01T07:14:47;18.30;99.90
3416;DHT22;1721;51.238;9.562;2023-08-01T07:17:12;18.50;99.90
3416;DHT22;1721;51.238;9.562;2023-08-01T07:19:38;18.50;99.90
3416;DHT22;1721;51.238;9.562;2023-08-01T07:22:04;18.40;99.90
3416;DHT22;1721;51.238;9.562;2023-08-01T07:24:29;18.40;99.90
3416;DHT22;1721;51.238;9.562;2023-08-01T07:26:55;18.40;99.90
3416;DHT22;1721;51.238;9.562;2023-08-01T07:29:20;18.50;99.90
3416;DHT22;1721;51.238;9.562;2023-08-01T07:31:46;18.50;99.90
3416;DHT22;1721;51.238;9.562;2023-08-01T07:34:11;18.50;99.90
3416;DHT22;1721;51.238;9.562;2023-08-01T07:36:37;18.40;99.90
3416;DHT22;1721;51.238;9.562;2023-08-01T07:39:03;18.30;99.90
3416;DHT22;1721;51.238;9.562;2023-08-01T07:41:29;18.30;99.90
3416;DHT22;1721;51.238;9.562;2023-08-01T07:43:54;18.20;99.90
3416;DHT22;1721;51.238;9.562;2023-08-01T07:46:20;18.20;99.90
3416;DHT22;1721;51.238;9.562;2023-08-01T07:48:45;18.40;99.90
3416;DHT22;1721;51.238;9.562;2023-08-01T07:51:11;18.40;99.90
3416;DHT22;1721;51.238;9.562;2023-08-01T07:53:37;18.50;99.90
3416;DHT22;1721;51.238;9.562;2023-08-01T07:56:03;18.30;99.90
3416;DHT22;1721;51.238;9.562;2023-08-01T07:58:29;18.20;99.90
3416;DHT22;1721;51.238;9.562;2023-08-01T08:00:55;18.20;99.90
3416;DHT22;1721;51.238;9.562;2023-08-01T08:03:20;18.30;99.90
3416;DHT22;1721;51.238;9.562;2023-08-01T08:05:49;18.40;99.90
3416;DHT22;1721;51.238;9.562;2023-08-01T08:08:14;18.50;99.90
3416;DHT22;1721;51.238;9.562;2023-08-01T08:10:40;18.60;99.90
3416;DHT22;1721;51.238;9.562;2023-08-01T08:13:06;18.50;99.90
3416;DHT22;1721;51.238;9.562;2023-08-01T08:15:31;18.70;99.90
3416;DHT22;1721;51.238;9.562;2023-08-01T08:18:00;19.00;99.90
3416;DHT22;1721;51.238;9.562;2023-08-01T08:20:26;19.20;99.90
3416;DHT22;1721;51.238;9.562;2023-08-01T08:22:52;19.30;99.90
3416;DHT22;1721;51.238;9.562;2023-08-01T08:25:17;19.40;99.90
3416;DHT22;1721;51.238;9.562;2023-08-01T08:27:43;19.30;99.90
3416;DHT22;1721;51.238;9.562;2023-08-01T08:30:09;19.20;99.90
3416;DHT22;1721;51.238;9.562;2023-08-01T08:32:35;19.20;99.90
3416;DHT22;1721;51.238;9.562;2023-08-01T08:35:01;19.20;99.90
3416;DHT22;1721;51.238;9.562;2023-08-01T08:37:26;19.30;99.90
3416;DHT22;1721;51.238;9.562;2023-08-01T08:39:52;19.50;99.90
3416;DHT22;1721;51.238;9.562;2023-08-01T08:42:20;19.70;99.90
3416;DHT22;1721;51.238;9.562;2023-08-01T08:44:49;19.70;99.90
3416;DHT22;1721;51.238;9.562;2023-08-01T08:47:17;19.90;99.90
3416;DHT22;1721;51.238;9.562;2023-08-01T08:49:44;20.00;99.90
3416;DHT22;1721;51.238;9.562;2023-08-01T08:52:11;20.30;99.90
3416;DHT22;1721;51.238;9.562;2023-08-01T08:54:37;20.40;99.20
3416;DHT22;1721;51.238;9.562;2023-08-01T08:57:05;20.10;97.70
3416;DHT22;1721;51.238;9.562;2023-08-01T08:59:32;20.20;99.10
3416;DHT22;1721;51.238;9.562;2023-08-01T09:01:58;20.10;98.70
3416;DHT22;1721;51.238;9.562;2023-08-01T09:04:27;20.10;98.90
3416;DHT22;1721;51.238;9.562;2023-08-01T09:06:56;19.90;99.30
3416;DHT22;1721;51.238;9.562;2023-08-01T09:09:23;19.90;99.90
3416;DHT22;1721;51.238;9.562;2023-08-01T09:11:52;19.90;99.90
3416;DHT22;1721;51.238;9.562;2023-08-01T09:14:19;19.90;99.70
3416;DHT22;1721;51.238;9.562;2023-08-01T09:16:46;19.70;99.80
3416;DHT22;1721;51.238;9.562;2023-08-01T09:19:20;19.60;99.90
3416;DHT22;1721;51.238;9.562;2023-08-01T09:21:47;19.60;99.80
3416;DHT22;1721;51.238;9.562;2023-08-01T09:24:15;19.70;99.90
3416;DHT22;1721;51.238;9.562;2023-08-01T09:26:41;20.00;99.90
3416;DHT22;1721;51.238;9.562;2023-08-01T09:29:06;20.50;99.90
3416;DHT22;1721;51.238;9.562;2023-08-01T09:31:34;20.90;99.90
3416;DHT22;1721;51.238;9.562;2023-08-01T09:34:01;21.20;99.90
3416;DHT22;1721;51.238;9.562;2023-08-01T09:36:27;21.50;99.90
3416;DHT22;1721;51.238;9.562;2023-08-01T09:38:58;21.60;97.10
3416;DHT22;1721;51.238;9.562;2023-08-01T09:41:24;21.20;97.20
3416;DHT22;1721;51.238;9.562;2023-08-01T09:43:49;20.90;97.00
3416;DHT22;1721;51.238;9.562;2023-08-01T09:46:15;20.60;97.20
3416;DHT22;1721;51.238;9.562;2023-08-01T09:48:41;20.50;98.10
3416;DHT22;1721;51.238;9.562;2023-08-01T09:51:12;20.50;98.70
3416;DHT22;1721;51.238;9.562;2023-08-01T09:53:47;20.40;98.70
3416;DHT22;1721;51.238;9.562;2023-08-01T09:56:23;20.50;98.90
3416;DHT22;1721;51.238;9.562;2023-08-01T09:58:50;20.60;99.00
3416;DHT22;1721;51.238;9.562;2023-08-01T10:01:24;20.70;99.40
3416;DHT22;1721;51.238;9.562;2023-08-01T10:03:53;20.90;99.90
3416;DHT22;1721;51.238;9.562;2023-08-01T10:06:23;21.20;99.80
3416;DHT22;1721;51.238;9.562;2023-08-01T10:08:51;21.60;99.90
3416;DHT22;1721;51.238;9.562;2023-08-01T10:11:19;21.70;98.90
3416;DHT22;1721;51.238;9.562;2023-08-01T10:13:45;21.80;98.50
3416;DHT22;1721;51.238;9.562;2023-08-01T10:16:12;21.80;98.00
3416;DHT22;1721;51.238;9.562;2023-08-01T10:18:38;21.60;98.00
3416;DHT22;1721;51.238;9.562;2023-08-01T10:21:06;21.40;97.90
3416;DHT22;1721;51.238;9.562;2023-08-01T10:23:35;21.40;97.90
3416;DHT22;1721;51.238;9.562;2023-08-01T10:26:03;21.40;97.30
3416;DHT22;1721;51.238;9.562;2023-08-01T10:28:37;21.40;98.10
3416;DHT22;1721;51.238;9.562;2023-08-01T10:31:09;21.70;98.60
3416;DHT22;1721;51.238;9.562;2023-08-01T10:33:35;21.90;98.30
3416;DHT22;1721;51.238;9.562;2023-08-01T10:36:00;22.00;96.60
3416;DHT22;1721;51.238;9.562;2023-08-01T10:38:44;22.10;97.30
3416;DHT22;1721;51.238;9.562;2023-08-01T10:41:27;22.20;94.90
3416;DHT22;1721;51.238;9.562;2023-08-01T10:44:06;22.10;95.50
3416;DHT22;1721;51.238;9.562;2023-08-01T10:46:51;22.00;96.10
3416;DHT22;1721;51.238;9.562;2023-08-01T10:49:18;22.10;96.30
3416;DHT22;1721;51.238;9.562;2023-08-01T10:51:44;22.20;95.90
3416;DHT22;1721;51.238;9.562;2023-08-01T10:54:20;22.30;96.10
3416;DHT22;1721;51.238;9.562;2023-08-01T10:56:47;22.50;96.10
3416;DHT22;1721;51.238;9.562;2023-08-01T10:59:14;22.60;95.20
3416;DHT22;1721;51.238;9.562;2023-08-01T11:01:50;22.50;94.70
3416;DHT22;1721;51.238;9.562;2023-08-01T11:04:18;22.40;94.80
3416;DHT22;1721;51.238;9.562;2023-08-01T11:06:50;22.40;95.50
3416;DHT22;1721;51.238;9.562;2023-08-01T11:09:21;22.40;94.70
3416;DHT22;1721;51.238;9.562;2023-08-01T11:11:49;22.30;94.20
3416;DHT22;1721;51.238;9.562;2023-08-01T11:14:16;22.20;95.10
3416;DHT22;1721;51.238;9.562;2023-08-01T11:16:43;22.00;96.00
3416;DHT22;1721;51.238;9.562;2023-08-01T11:19:38;22.10;95.40
3416;DHT22;1721;51.238;9.562;2023-08-01T11:22:09;21.80;94.10
3416;DHT22;1721;51.238;9.562;2023-08-01T11:24:34;21.70;95.40
3416;DHT22;1721;51.238;9.562;2023-08-01T11:27:00;21.60;95.20
3416;DHT22;1721;51.238;9.562;2023-08-01T11:29:26;21.70;96.30
3416;DHT22;1721;51.238;9.562;2023-08-01T11:31:53;21.70;95.40
3416;DHT22;1721;51.238;9.562;2023-08-01T11:34:19;21.70;95.00
3416;DHT22;1721;51.238;9.562;2023-08-01T11:36:44;21.70;94.70
3416;DHT22;1721;51.238;9.562;2023-08-01T11:39:12;21.70;95.10
3416;DHT22;1721;51.238;9.562;2023-08-01T11:41:38;21.60;95.00
3416;DHT22;1721;51.238;9.562;2023-08-01T11:44:04;21.80;95.90
3416;DHT22;1721;51.238;9.562;2023-08-01T11:46:34;21.70;93.90
3416;DHT22;1721;51.238;9.562;2023-08-01T11:49:01;21.60;93.90
3416;DHT22;1721;51.238;9.562;2023-08-01T11:51:27;21.60;93.50
3416;DHT22;1721;51.238;9.562;2023-08-01T11:54:00;21.70;94.40
3416;DHT22;1721;51.238;9.562;2023-08-01T11:56:26;21.70;94.10
3416;DHT22;1721;51.238;9.562;2023-08-01T11:58:52;21.70;94.50
3416;DHT22;1721;51.238;9.562;2023-08-01T12:01:18;21.80;94.10
3416;DHT22;1721;51.238;9.562;2023-08-01T12:03:48;21.80;94.10
3416;DHT22;1721;51.238;9.562;2023-08-01T12:06:18;21.80;94.30
3416;DHT22;1721;51.238;9.562;2023-08-01T12:08:46;21.70;93.60
3416;DHT22;1721;51.238;9.562;2023-08-01T12:11:25;21.50;94.30
3416;DHT22;1721;51.238;9.562;2023-08-01T12:14:09;21.30;94.00
3416;DHT22;1721;51.238;9.562;2023-08-01T12:16:39;21.30;94.70
3416;DHT22;1721;51.238;9.562;2023-08-01T12:19:06;21.30;94.30
3416;DHT22;1721;51.238;9.562;2023-08-01T12:21:32;21.50;94.50
3416;DHT22;1721;51.238;9.562;2023-08-01T12:23:59;21.50;93.30
3416;DHT22;1721;51.238;9.562;2023-08-01T12:26:25;21.40;93.50
3416;DHT22;1721;51.238;9.562;2023-08-01T12:28:50;21.20;93.20
3416;DHT22;1721;51.238;9.562;2023-08-01T12:31:17;21.20;94.00
3416;DHT22;1721;51.238;9.562;2023-08-01T12:33:44;21.30;93.60
3416;DHT22;1721;51.238;9.562;2023-08-01T12:36:10;21.20;92.90
3416;DHT22;1721;51.238;9.562;2023-08-01T12:38:35;21.30;94.70
3416;DHT22;1721;51.238;9.562;2023-08-01T12:41:01;21.50;93.80
3416;DHT22;1721;51.238;9.562;2023-08-01T12:43:27;21.70;92.90
3416;DHT22;1721;51.238;9.562;2023-08-01T12:45:53;21.80;93.70
3416;DHT22;1721;51.238;9.562;2023-08-01T12:48:18;21.80;93.30
3416;DHT22;1721;51.238;9.562;2023-08-01T12:50:45;21.80;92.70
3416;DHT22;1721;51.238;9.562;2023-08-01T12:53:12;21.60;91.70
3416;DHT22;1721;51.238;9.562;2023-08-01T12:55:38;21.60;92.30
3416;DHT22;1721;51.238;9.562;2023-08-01T12:58:03;21.60;93.90
3416;DHT22;1721;51.238;9.562;2023-08-01T13:00:33;21.70;92.50
3416;DHT22;1721;51.238;9.562;2023-08-01T13:02:59;21.80;93.50
3416;DHT22;1721;51.238;9.562;2023-08-01T13:05:25;21.90;93.00
3416;DHT22;1721;51.238;9.562;2023-08-01T13:07:54;21.90;93.00
3416;DHT22;1721;51.238;9.562;2023-08-01T13:10:19;21.90;92.70
3416;DHT22;1721;51.238;9.562;2023-08-01T13:12:55;22.10;93.00
3416;DHT22;1721;51.238;9.562;2023-08-01T13:15:21;22.20;93.20
3416;DHT22;1721;51.238;9.562;2023-08-01T13:17:47;22.30;93.30
3416;DHT22;1721;51.238;9.562;2023-08-01T13:20:12;22.30;92.80
3416;DHT22;1721;51.238;9.562;2023-08-01T13:22:38;22.10;91.80
3416;DHT22;1721;51.238;9.562;2023-08-01T13:25:04;22.00;92.70
3416;DHT22;1721;51.238;9.562;2023-08-01T13:27:33;22.00;92.50
3416;DHT22;1721;51.238;9.562;2023-08-01T13:29:59;22.10;91.20
3416;DHT22;1721;51.238;9.562;2023-08-01T13:32:24;22.10;91.50
3416;DHT22;1721;51.238;9.562;2023-08-01T13:34:50;22.10;92.00
3416;DHT22;1721;51.238;9.562;2023-08-01T13:37:16;22.10;91.50
3416;DHT22;1721;51.238;9.562;2023-08-01T13:39:41;22.20;91.50
3416;DHT22;1721;51.238;9.562;2023-08-01T13:42:07;22.20;91.50
3416;DHT22;1721;51.238;9.562;2023-08-01T13:44:32;22.20;91.50
3416;DHT22;1721;51.238;9.562;2023-08-01T13:46:58;22.20;91.10
3416;DHT22;1721;51.238;9.562;2023-08-01T13:49:24;22.00;91.10
3416;DHT22;1721;51.238;9.562;2023-08-01T13:51:49;22.10;91.10
3416;DHT22;1721;51.238;9.562;2023-08-01T13:54:15;21.70;91.10
3416;DHT22;1721;51.238;9.562;2023-08-01T13:56:40;21.50;91.70
3416;DHT22;1721;51.238;9.562;2023-08-01T13:59:06;21.60;91.30
3416;DHT22;1721;51.238;9.562;2023-08-01T14:01:32;21.60;91.50
3416;DHT22;1721;51.238;9.562;2023-08-01T14:03:57;21.60;91.20
3416;DHT22;1721;51.238;9.562;2023-08-01T14:06:23;21.70;91.60
3416;DHT22;1721;51.238;9.562;2023-08-01T14:08:49;21.90;91.90
3416;DHT22;1721;51.238;9.562;2023-08-01T14:11:14;22.00;91.70
3416;DHT22;1721;51.238;9.562;2023-08-01T14:13:40;22.00;91.40
3416;DHT22;1721;51.238;9.562;2023-08-01T14:16:05;21.90;90.20
3416;DHT22;1721;51.238;9.562;2023-08-01T14:18:31;21.90;91.80
3416;DHT22;1721;51.238;9.562;2023-08-01T14:20:56;22.00;91.80
3416;DHT22;1721;51.238;9.562;2023-08-01T14:23:22;21.90;91.90
3416;DHT22;1721;51.238;9.562;2023-08-01T14:25:48;21.90;91.70
3416;DHT22;1721;51.238;9.562;2023-08-01T14:28:14;22.00;91.70
3416;DHT22;1721;51.238;9.562;2023-08-01T14:30:40;21.90;91.50
3416;DHT22;1721;51.238;9.562;2023-08-01T14:33:07;21.80;90.70
3416;DHT22;1721;51.238;9.562;2023-08-01T14:35:35;21.60;91.70
3416;DHT22;1721;51.238;9.562;2023-08-01T14:38:00;21.40;92.60
3416;DHT22;1721;51.238;9.562;2023-08-01T14:40:26;21.30;92.90
3416;DHT22;1721;51.238;9.562;2023-08-01T14:42:52;21.10;93.00
3416;DHT22;1721;51.238;9.562;2023-08-01T14:45:18;20.90;93.70
3416;DHT22;1721;51.238;9.562;2023-08-01T14:47:44;20.70;94.50
3416;DHT22;1721;51.238;9.562;2023-08-01T14:50:11;20.60;94.60
3416;DHT22;1721;51.238;9.562;2023-08-01T14:52:37;20.60;94.90
3416;DHT22;1721;51.238;9.562;2023-08-01T14:55:02;20.70;95.50
3416;DHT22;1721;51.238;9.562;2023-08-01T14:57:28;20.90;95.50
3416;DHT22;1721;51.238;9.562;2023-08-01T14:59:54;21.10;95.60
3416;DHT22;1721;51.238;9.562;2023-08-01T15:02:20;21.20;96.00
3416;DHT22;1721;51.238;9.562;2023-08-01T15:04:50;21.20;95.50
3416;DHT22;1721;51.238;9.562;2023-08-01T15:07:15;21.20;95.70
3416;DHT22;1721;51.238;9.562;2023-08-01T15:09:44;21.20;95.20
3416;DHT22;1721;51.238;9.562;2023-08-01T15:12:09;21.40;95.20
3416;DHT22;1721;51.238;9.562;2023-08-01T15:14:37;21.40;95.10
3416;DHT22;1721;51.238;9.562;2023-08-01T15:17:03;21.40;94.80
3416;DHT22;1721;51.238;9.562;2023-08-01T15:19:30;21.50;94.70
3416;DHT22;1721;51.238;9.562;2023-08-01T15:21:55;21.50;94.10
3416;DHT22;1721;51.238;9.562;2023-08-01T15:24:21;21.20;94.10
3416;DHT22;1721;51.238;9.562;2023-08-01T15:26:46;20.90;93.90
3416;DHT22;1721;51.238;9.562;2023-08-01T15:29:13;20.70;94.60
3416;DHT22;1721;51.238;9.562;2023-08-01T15:31:39;20.60;94.80
3416;DHT22;1721;51.238;9.562;2023-08-01T15:34:05;20.50;95.30
3416;DHT22;1721;51.238;9.562;2023-08-01T15:36:30;20.50;94.70
3416;DHT22;1721;51.238;9.562;2023-08-01T15:38:57;20.30;94.30
3416;DHT22;1721;51.238;9.562;2023-08-01T15:41:23;20.30;94.30
3416;DHT22;1721;51.238;9.562;2023-08-01T15:43:49;20.40;94.80
3416;DHT22;1721;51.238;9.562;2023-08-01T15:46:14;20.40;95.30
3416;DHT22;1721;51.238;9.562;2023-08-01T15:48:40;20.50;94.10
3416;DHT22;1721;51.238;9.562;2023-08-01T15:51:06;20.50;94.10
3416;DHT22;1721;51.238;9.562;2023-08-01T15:53:32;20.60;93.80
3416;DHT22;1721;51.238;9.562;2023-08-01T15:56:03;20.40;93.40
3416;DHT22;1721;51.238;9.562;2023-08-01T15:58:29;20.30;92.30